• Join FlightAware (Why Join?)
  • Login
  • US Flag 
10:19PM EST


 

Airport Tracker/Info


-or-


 

Live Flight TrackerFlight Track Log ✈ SWA1199 ✈ 05-Oct-2013 ✈ KPHL - KSTL

Flight Track Log - Related Links

Times and Time Zones

All times are in EDT time to prevent confusion due to time zone crossing. See the SWA1199 flight status page for this flight to view local times or setup timezone preferences in your user account.

Time Position Orientation Groundspeed Altitude Reporting Facility
EDT Latitude Longitude Course Direction KTS MPH feet Rate Location/Type
09:14AM 39.8667 -75.2833 218° Southwest 164 189 800  Level Philadelphia TRACON
09:15AM 39.8500 -75.3000 218° Southwest 171 197 1,300 2,760 Climbing Philadelphia TRACON
09:17AM 39.8497 -75.4514 270° West 244 281 6,900 3,120 Climbing New York Center
09:18AM 39.8561 -75.5492 275° West 266 306 10,300 2,880 Climbing New York Center
09:19AM 39.8656 -75.6742 276° West 306 352 12,800 2,400 Climbing New York Center
09:20AM 39.8753 -75.7914 276° West 348 400 15,100 2,520 Climbing New York Center
09:21AM 39.8883 -75.9222 277° West 363 418 17,800 2,640 Climbing New York Center
09:22AM 39.8989 -76.0608 276° West 382 440 20,400 2,520 Climbing New York Center
09:23AM 39.9092 -76.2025 275° West 387 445 22,900 2,340 Climbing New York Center
09:24AM 39.9144 -76.3600 273° West 398 458 25,100 2,040 Climbing New York Center
09:25AM 39.9200 -76.5011 273° West 416 479 27,000 1,740 Climbing New York Center
09:26AM 39.9250 -76.6558 272° West 430 495 28,600 1,860 Climbing New York Center
09:27AM 39.9311 -76.8217 273° West 435 501 30,800 2,160 Climbing New York Center
09:28AM 39.9386 -76.9603 274° West 430 495 33,000 1,800 Climbing New York Center
09:29AM 39.9431 -77.1097 272° West 424 488 34,500 1,500 Climbing New York Center
09:30AM 39.9478 -77.2536 272° West 419 482 36,100 1,380 Climbing New York Center
09:31AM 39.9564 -77.4008 274° West 414 476 37,300 600 Climbing New York Center
09:33AM 39.9642 -77.7319 272° West 413 475 38,000 180 Climbing Cleveland Center
09:34AM 39.9686 -77.8803 272° West 413 475 38,000  Level Cleveland Center
09:35AM 39.9722 -78.0294 272° West 413 475 38,000  Level Cleveland Center
09:36AM 39.9761 -78.1781 272° West 412 474 38,000  Level Cleveland Center
09:37AM 39.9806 -78.3308 272° West 409 471 38,000  Level Cleveland Center
09:38AM 39.9842 -78.4769 272° West 405 466 38,000  Level Cleveland Center
09:39AM 39.9878 -78.6208 272° West 400 460 38,000  Level Cleveland Center
09:40AM 39.9919 -78.7944 272° West 400 460 38,000  Level Cleveland Center
09:41AM 39.9944 -78.9419 271° West 406 467 38,000  Level Cleveland Center
09:42AM 39.9975 -79.0733 272° West 404 465 38,000  Level Cleveland Center
09:43AM 39.9997 -79.2200 271° West 404 465 38,000  Level Cleveland Center
09:44AM 39.9942 -79.3683 267° West 410 472 38,000  Level Cleveland Center
09:45AM 39.9886 -79.5472 268° West 411 473 38,000  Level Cleveland Center
09:46AM 39.9831 -79.6961 267° West 412 474 38,000  Level Cleveland Center
09:47AM 39.9781 -79.8464 268° West 412 474 38,000  Level Cleveland Center
09:48AM 39.9736 -79.9975 268° West 423 487 38,000  Level Cleveland Center
09:49AM 39.9672 -80.1464 267° West 414 476 38,000  Level Cleveland Center
09:50AM 39.9611 -80.2958 267° West 412 474 38,000  Level Cleveland Center
09:51AM 39.9556 -80.4458 267° West 413 475 38,000  Level Cleveland Center
09:52AM 39.9492 -80.5953 267° West 411 473 38,000  Level Cleveland Center
09:53AM 39.9419 -80.7433 266° West 411 473 38,000  Level Cleveland Center
09:54AM 39.9356 -80.8911 267° West 408 470 38,000  Level Cleveland Center
09:55AM 39.9286 -81.0397 267° West 411 473 38,000  Level Cleveland Center
09:56AM 39.9219 -81.1900 267° West 414 476 38,000  Level Cleveland Center
09:57AM 39.9128 -81.3681 266° West 411 473 38,000  Level Cleveland Center
09:58AM 39.9064 -81.5081 267° West 420 483 38,000  Level Cleveland Center
09:59AM 39.8981 -81.6572 266° West 416 479 38,000  Level Cleveland Center
10:00AM 39.8900 -81.8083 266° West 419 482 38,000  Level Cleveland Center
10:01AM 39.8808 -81.9869 266° West 415 478 38,000  Level Cleveland Center
10:02AM 39.8717 -82.1347 265° West 412 474 38,000  Level Cleveland Center
10:04AM 39.8622 -82.3147 266° West 414 476 38,000  Level Indianapolis Center
10:05AM 39.8531 -82.4644 265° West 416 479 38,000  Level Indianapolis Center
10:06AM 39.8458 -82.6117 266° West 410 472 38,000  Level Indianapolis Center
10:07AM 39.8361 -82.7592 265° West 409 471 38,000  Level Indianapolis Center
10:08AM 39.8269 -82.9056 265° West 409 471 38,000  Level Indianapolis Center
10:09AM 39.8156 -83.0806 265° West 406 467 38,000  Level Indianapolis Center
10:10AM 39.8061 -83.2278 265° West 408 470 38,000  Level Indianapolis Center
10:11AM 39.7967 -83.3736 265° West 410 472 38,000  Level Indianapolis Center
10:12AM 39.7869 -83.5208 265° West 411 473 38,000  Level Indianapolis Center
10:13AM 39.7753 -83.6828 265° West 412 474 38,000  Level Indianapolis Center
10:14AM 39.7656 -83.8317 265° West 413 475 38,000  Level Indianapolis Center
10:15AM 39.7544 -83.9811 265° West 415 478 38,000  Level Indianapolis Center
10:16AM 39.7433 -84.1308 265° West 416 479 38,000  Level Indianapolis Center
10:17AM 39.7333 -84.2803 265° West 417 480 38,000  Level Indianapolis Center
10:18AM 39.7219 -84.4306 264° West 419 482 38,000  Level Indianapolis Center
10:19AM 39.7164 -84.5808 267° West 417 480 38,000  Level Indianapolis Center
10:20AM 39.7344 -84.7614 277° West 420 483 38,000  Level Indianapolis Center
10:21AM 39.7461 -84.8942 277° West 419 482 38,000  Level Indianapolis Center
10:22AM 39.7581 -85.0419 276° West 414 476 38,000  Level Indianapolis Center
10:23AM 39.7697 -85.1911 276° West 416 479 38,000  Level Indianapolis Center
10:24AM 39.7817 -85.3681 275° West 412 474 38,000  Level Indianapolis Center
10:25AM 39.7931 -85.5158 276° West 411 473 38,000  Level Indianapolis Center
10:26AM 39.8011 -85.6619 274° West 409 471 38,000  Level Indianapolis Center
10:27AM 39.8039 -85.8081 271° West 406 467 38,000  Level Indianapolis Center
10:28AM 39.8072 -85.9533 272° West 405 466 38,000  Level Indianapolis Center
10:29AM 39.8106 -86.0994 272° West 410 472 38,000  Level Indianapolis Center
10:30AM 39.8119 -86.2453 271° West 409 471 38,000  Level Indianapolis Center
10:31AM 39.8017 -86.4208 266° West 408 470 38,000  Level Indianapolis Center
10:32AM 39.7700 -86.5522 253° West 412 474 38,000  Level Indianapolis Center
10:33AM 39.7361 -86.6897 252° West 404 465 38,000 -300 Level Indianapolis Center
10:34AM 39.7022 -86.8289 252° West 407 468 37,500 -600 Descending Indianapolis Center
10:35AM 39.6664 -86.9672 251° West 406 467 36,800 -780 Descending Indianapolis Center
10:36AM 39.6247 -87.1356 252° West 411 473 36,000 -420 Descending Indianapolis Center
10:37AM 39.5897 -87.2747 252° West 410 472 36,000  Level Indianapolis Center
10:38AM 39.5550 -87.4139 252° West 408 470 36,000  Level Indianapolis Center
10:39AM 39.5189 -87.5511 251° West 405 466 36,000  Level Indianapolis Center
10:41AM 39.4836 -87.6892 252° West 406 467 36,000 -1,020 Level Indianapolis Center
10:42AM 39.4481 -87.8267 252° West 405 466 34,000 -2,340 Descending Indianapolis Center
10:43AM 39.4125 -87.9658 252° West 409 471 31,300 -2,580 Descending Indianapolis Center
10:44AM 39.3706 -88.1264 251° West 395 455 28,800 -2,220 Descending Indianapolis Center
10:45AM 39.3417 -88.2467 253° West 380 437 26,800 -2,040 Descending Indianapolis Center
10:46AM 39.3008 -88.3964 251° West 379 436 24,300 -2,100 Descending Kansas City Center
10:47AM 39.2686 -88.5156 251° West 368 423 22,200 -2,040 Descending Kansas City Center
10:48AM 39.2372 -88.6339 251° West 358 412 20,200 -1,920 Descending Kansas City Center
10:49AM 39.2072 -88.7461 251° West 350 403 18,200 -1,920 Descending Kansas City Center
10:50AM 39.1753 -88.8547 249° West 332 382 16,300 -2,040 Descending Kansas City Center
10:51AM 39.1436 -88.9806 252° West 321 369 14,100 -2,160 Descending Kansas City Center
10:52AM 39.1117 -89.0978 251° West 321 369 12,000 -1,560 Descending Kansas City Center
10:53AM 39.0842 -89.2022 251° West 311 358 11,000 -540 Descending Kansas City Center
10:54AM 39.0617 -89.3031 254° West 296 341 11,000 -60 Level Kansas City Center
10:55AM 39.0386 -89.4061 254° West 299 344 10,900 -480 Descending Kansas City Center
10:56AM 39.0136 -89.5142 253° West 295 339 10,000 -1,140 Descending Kansas City Center
10:57AM 38.9631 -89.5789 225° Southwest 259 298 8,600 -1,440 Descending Kansas City Center
10:58AM 38.9081 -89.6347 218° Southwest 254 292 7,100 -840 Descending Kansas City Center
10:59AM 38.8644 -89.6933 226° Southwest 255 293 7,000 -300 Descending Kansas City Center
11:00AM 38.8319 -89.7739 243° Southwest 255 293 6,500 -1,200 Descending Kansas City Center
11:01AM 38.7906 -89.8728 242° Southwest 259 298 4,700 -1,200 Descending Kansas City Center
11:02AM 38.7578 -89.9536 243° Southwest 259 298 4,000 -600 Descending Kansas City Center
11:03AM 38.7306 -90.0181 242° Southwest 229 264 3,500 -300 Descending Kansas City Center
11:04AM 38.7036 -90.0817 242° Southwest 212 244 3,500  Level Kansas City Center
11:05AM 38.6769 -90.1447 242° Southwest 205 236 3,500 -300 Level Kansas City Center
11:06AM 38.6739 -90.2078 266° West 191 220 2,900 -780 Descending Kansas City Center
11:07AM 38.6981 -90.2575 302° West 174 200 2,000 -840 Descending Kansas City Center
11:08AM 38.7200 -90.3022 302° West 162 186 1,300 -720 Descending Kansas City Center
11:09AM 38.7403 -90.3428 303° West 148 170 600 -720 Descending Kansas City Center
11:11AM 38.7438 -90.3693 169° South  Level FlightAware Approximate